Elliot Chaparral Reserve, California Weather observations

Data are for 10 minute period ending at time listed.
 Day   Time   Solar   Ave.   Ave.  Ave.  Vector  Max.   Baro.   Total    
  of    of     Rad.   Air    Rel.  Wind   Wind   Wind  Press.  Precip.   
Year   Day            Temp.  Hum.  Speed  Dir.   Gust                    
2017   (PST)  Kw/m2    F      %     mph   deg.    mph    mb.     in.     
-------------------------------------------------------------------------
 293    0:00   0.00   62.1    91    2.0   204     3.0   985.0    0.00 
 293    0:10   0.00   62.2    91    2.2   235     3.1   985.2    0.00 
 293    0:20   0.00   62.2    91    2.6   219     3.4   985.3    0.00 
 293    0:30   0.00   62.3    91    3.4   211     5.0   985.5    0.00 
 293    0:40   0.00   62.1    91    3.9   214     4.6   985.4    0.00 
 293    0:50   0.00   62.1    91    4.1   226     6.1   985.5    0.00 
 293    1:00   0.00   62.1    91    4.3   222     5.1   985.5    0.00 
 293    1:10   0.00   62.0    91    3.5   208     4.5   985.5    0.00 
 293    1:20   0.00   61.9    91    3.6   181     4.3   985.5    0.00 
 293    1:30   0.00   61.6    91    3.7   170     4.7   985.4    0.00 
 293    1:40   0.00   61.4    91    3.2   152     4.3   985.1    0.00 
 293    1:50   0.00   61.3    92    1.9   128     2.6   985.2    0.00 
 293    2:00   0.00   61.5    92    2.2   126     3.2   985.1    0.00 
 293    2:10   0.00   61.6    91    3.0   104     4.8   984.9    0.00 
 293    2:20   0.00   61.7    91    2.4   132     3.4   985.0    0.00 
 293    2:30   0.00   62.0    91    3.1   153     4.0   985.0    0.00 
 293    2:40   0.00   62.0    90    3.4   174     5.2   985.1    0.00 
 293    2:50   0.00   62.2    90    4.3   167     6.1   985.0    0.00 
 293    3:00   0.00   62.2    90    4.9   153     6.0   984.9    0.00 
 293    3:10   0.00   61.7    90    5.3   153     6.6   985.0    0.00 
 293    3:20   0.00   61.4    91    6.3   158     7.5   984.9    0.00 
 293    3:30   0.00   61.2    92    5.7   140     7.1   984.9    0.00 
 293    3:40   0.00   61.0    92    4.5   141     6.1   984.9    0.00 
 293    3:50   0.00   60.9    92    4.4   147     5.5   984.9    0.00 
 293    4:00   0.00   60.9    92    5.5   150     7.1   984.9    0.00 
 293    4:10   0.00   60.6    92    6.3   144     8.7   984.7    0.00 
 293    4:20   0.00   60.7    92    5.2   151     7.0   984.9    0.00 
 293    4:30   0.00   61.0    92    4.5   168     5.9   985.1    0.00 
 293    4:40   0.00   61.4    92    4.6   171     6.7   985.1    0.00 
 293    4:50   0.00   61.7    91    3.9   186     6.6   985.3    0.00 
 293    5:00   0.00   61.9    91    5.1   187     7.5   985.5    0.00 
 293    5:10   0.00   61.9    90    3.1   193     5.9   985.5    0.00 
 293    5:20   0.00   61.9    90    4.2   183     6.9   985.6    0.00 
 293    5:30   0.00   61.9    91    3.5   162     4.9   985.6    0.00 
 293    5:40   0.00   62.1    91    3.1   177     4.7   985.7    0.00 
 293    5:50   0.00   62.2    91    2.6   183     3.7   985.9    0.00 
 293    6:00   0.00   62.2    92    1.4   265     3.9   986.0    0.00 
 293    6:10   0.00   62.2    92    2.0   254     3.9   986.1    0.00 
 293    6:20   0.00   62.2    92    1.8   160     3.4   986.2    0.00 
 293    6:30   0.01   62.2    92    3.5   188     5.1   986.2    0.00 
 293    6:40   0.02   62.2    92    4.7   218     8.7   986.2    0.00 
 293    6:50   0.02   62.2    91    7.5   271    14.1   986.3    0.00 
 293    7:00   0.05   62.3    86    8.7   290    13.6   986.3    0.00 
 293    7:10   0.17   63.2    83   10.6   288    16.9   986.2    0.00 
 293    7:20   0.07   64.0    81   11.6   289    15.7   986.3    0.00 
 293    7:30   0.08   63.9    80   13.9   292    20.2   986.4    0.00 
 293    7:40   0.09   63.9    79   14.9   297    22.6   986.4    0.00 
 293    7:50   0.24   64.5    78   18.0   292    23.5   986.4    0.00 
 293    8:00   0.12   63.9    80   16.8   292    22.6   986.5    0.00 
 293    8:10   0.40   65.3    76   14.0   289    18.6   986.6    0.00 
 293    8:20   0.10   65.3    74   18.2   285    25.0   986.6    0.00 
 293    8:30   0.20   64.5    75   15.4   293    22.1   986.7    0.00 
 293    8:40   0.19   64.8    74   18.4   289    24.2   986.6    0.00 
 293    8:50   0.19   64.5    74   18.8   289    23.6   986.6    0.00 
 293    9:00   0.16   64.1    73   16.5   292    22.1   986.7    0.00 
 293    9:10   0.23   65.4    70   13.0   279    17.3   986.6    0.00 
 293    9:20   0.16   65.2    69   11.8   283    15.1   986.5    0.00 
 293    9:30   0.27   65.8    67   13.0   296    17.3   986.6    0.00 
 293    9:40   0.16   65.6    67   13.3   286    17.1   986.8    0.00 
 293    9:50   0.28   66.0    66   12.7   277    17.2   986.8    0.00 
 293   10:00   0.27   66.4    67   13.9   277    20.2   986.7    0.00 
 293   10:10   0.56   67.8    63   14.9   281    20.8   986.5    0.00 
 293   10:20   0.28   67.1    65   14.9   272    20.0   986.6    0.00 
 293   10:30   0.56   67.7    62   13.4   270    17.5   986.6    0.00 
 293   10:40   0.24   68.1    62   13.2   268    18.4   986.6    0.00 
 293   10:50   0.24   67.0    63   15.9   265    20.7   986.7    0.00 
 293   11:00   0.30   66.6    64   16.3   272    20.4   986.7    0.00 
 293   11:10   0.25   66.8    66   15.0   266    19.5   986.7    0.00 
 293   11:20   0.23   65.9    68   13.4   285    19.4   986.6    0.00 
 293   11:30   0.22   66.5    65   14.6   284    19.9   986.5    0.00 
 293   11:40   0.22   65.9    69   13.7   281    18.6   986.4    0.00 
 293   11:50   0.24   66.1    69   14.6   281    19.5   986.4    0.00 
 293   12:00   0.25   66.7    68   13.2   268    18.0   986.3    0.00 
 293   12:10   0.50   67.1    67   14.7   275    19.8   986.2    0.00 
 293   12:20   0.29   67.1    67   15.8   281    21.0   986.0    0.00 
 293   12:30   0.50   67.2    69   13.1   272    20.0   985.8    0.00 
 293   12:40   0.37   68.0    66   15.6   282    22.1   985.7    0.00 
 293   12:50   0.23   67.1    68   14.2   276    18.6   985.6    0.00 
 293   13:00   0.24   66.9    68   14.5   282    19.7   985.6    0.00 
 293   13:10   0.28   66.7    68   15.1   280    18.3   985.5    0.00 
 293   13:20   0.24   66.8    68   13.5   284    18.9   985.6    0.00 
 293   13:30   0.27   66.7    69   13.8   282    19.4   985.5    0.00 
 293   13:40   0.23   66.7    68   14.6   270    19.8   985.4    0.00 
 293   13:50   0.19   65.6    74   13.3   268    18.1   985.4    0.00 
 293   14:00   0.22   65.9    73   12.3   272    16.7   985.4    0.00 
 293   14:10   0.18   65.4    76   16.8   278    23.4   985.3    0.00 
 293   14:20   0.20   65.0    78   16.8   274    20.6   985.4    0.00 
 293   14:30   0.33   65.4    77   14.6   266    20.8   985.4    0.00 
 293   14:40   0.30   67.1    69   16.4   274    21.5   985.3    0.00 
 293   14:50   0.42   67.6    67   16.3   277    20.5   985.2    0.00 
 293   15:00   0.22   66.9    68   15.2   275    18.9   985.1    0.00 
 293   15:10   0.17   65.9    70   14.3   267    18.0   985.0    0.00 
 293   15:20   0.26   66.0    72   14.2   280    18.4   984.9    0.00 
 293   15:30   0.31   67.2    69   14.6   269    19.4   984.7    0.00 
 293   15:40   0.17   66.2    72   13.2   275    18.4   984.6    0.00 
 293   15:50   0.19   66.3    71   14.4   268    19.2   984.6    0.00 
 293   16:00   0.17   65.7    71   13.0   272    18.2   984.6    0.00 
 293   16:10   0.16   66.0    70   11.7   283    15.7   984.6    0.00 
 293   16:20   0.09   64.7    72   13.0   275    16.4   984.5    0.00 
 293   16:30   0.06   63.5    74   14.2   285    18.7   984.6    0.00 
 293   16:40   0.04   62.9    75   14.6   281    18.6   984.5    0.00 
 293   16:50   0.02   62.4    75   13.1   271    17.9   984.5    0.00 
 293   17:00   0.00   62.0    75   12.3   275    15.9   984.6    0.00 
 293   17:10   0.00   61.8    76   12.7   278    15.9   984.7    0.00 
 293   17:20   0.00   61.9    76   10.1   275    13.2   985.0    0.00 
 293   17:30   0.00   62.1    76   10.5   269    15.3   985.0    0.00 
 293   17:40   0.00   61.8    75   11.3   274    15.1   985.2    0.00 
 293   17:50   0.00   61.5    76   10.2   274    13.5   985.4    0.00 
 293   18:00   0.00   61.1    76    9.2   272    12.1   985.4    0.00 
 293   18:10   0.00   60.5    76    7.9   270    11.5   985.4    0.00 
 293   18:20   0.00   60.4    76    7.8   269    10.2   985.5    0.00 
 293   18:30   0.00   60.4    77    7.5   258     9.9   985.5    0.00 
 293   18:40   0.00   60.4    77    6.6   236     9.8   985.5    0.00 
 293   18:50   0.00   60.3    77    5.5   238     8.3   985.5    0.00 
 293   19:00   0.00   59.9    78    6.7   236     8.9   985.6    0.00 
 293   19:10   0.00   59.2    79    6.1   214     7.9   985.3    0.00 
 293   19:20   0.00   58.8    80    8.0   221    10.0   985.2    0.00 
 293   19:30   0.00   59.1    80    7.4   222     8.8   985.2    0.00 
 293   19:40   0.00   59.5    79    7.4   226     9.0   985.5    0.00 
 293   19:50   0.00   59.7    79    6.9   233     8.8   985.6    0.00 
 293   20:00   0.00   59.7    79    5.2   235     7.4   985.9    0.00 
 293   20:10   0.00   59.9    78    4.1   204     5.7   985.9    0.00 
 293   20:20   0.00   59.8    78    5.6   188     7.5   985.7    0.00 
 293   20:30   0.00   59.5    78    5.9   170     9.1   985.7    0.00 
 293   20:40   0.00   59.3    78    6.0   159     7.4   985.8    0.00 
 293   20:50   0.00   59.1    78    7.0   162     8.5   985.8    0.00 
 293   21:00   0.00   59.3    78    6.9   161     8.8   985.8    0.00 
 293   21:10   0.00   59.7    77    6.2   152     8.0   986.1    0.00 
 293   21:20   0.00   60.0    76    5.8   141     7.5   986.3    0.00 
 293   21:30   0.00   60.2    76    6.4   135     7.7   986.2    0.00 
 293   21:40   0.00   60.2    75    7.8   139    10.1   986.2    0.00 
 293   21:50   0.00   60.4    74    7.4   134     9.7   986.2    0.00 
 293   22:00   0.00   60.4    74    6.8   118     8.9   986.5    0.00 
 293   22:10   0.00   60.4    74    8.9   123    11.5   986.5    0.00 
 293   22:20   0.00   60.4    74    8.6   128    12.1   986.5    0.00 
 293   22:30   0.00   60.4    74    7.1   129     9.9   986.4    0.00 
 293   22:40   0.00   60.3    73    7.7   130    10.0   986.5    0.00 
 293   22:50   0.00   60.4    73    6.5   126     8.6   986.6    0.00 
 293   23:00   0.00   60.4    73    8.1   136    10.4   986.5    0.00 
 293   23:10   0.00   60.2    73    7.8   138     9.2   986.6    0.00 
 293   23:20   0.00   60.0    74    7.9   127    10.3   986.6    0.00 
 293   23:30   0.00   59.8    74    9.8   130    13.6   986.4    0.00 
 293   23:40   0.00   59.6    74    9.0   127    11.9   986.5    0.00 
 293   23:50   0.00   59.4    75    7.9   124    10.0   986.5    0.00 

Return to Elliot Chaparral Reserve graphs page.


Western Regional Climate Center,wrcc@dri.edu